L'Annonciation, Canada
Current Conditions -  °F | °C
As of 5:00 AM on Tuesday 21 Oct 2014 (Local Time) from CYMX Reporting Station
Rain Showers Rain Showers  
Wind Chill: 35°   Ceiling: 2000
Heat Index: 39°   Visibility: 15mi
Dew Point: 37°   Wind: 6mph
Humidity: 93%   Direction: 50°NE
Pressure: 29.97"   Gusts: NA
Location:  46.4°N, 74.87°W
Report Text: CYMX 210900Z 05005KT 15SM -SHRA BKN020 OVC050 04/03 A2997 RMK SC6SC2 SLP153
Loading
Personal Weather Stations






























Interactive Weather Map
Tropical Storm Tracking
New forecast layout! Learn more

10-Day Weather Forecast

Advertisements
Track Severe Weather on mobile